KISP/ISP METAR and TAF weather

Enter ICAO airport designator
Station Type Date Time Source
KISP METAR 2019/05/20 10:56 UTC NOAA

KISP 201056Z 21009KT 8SM SCT150 BKN250 17/16 A2986 RMK AO2 SLP109 T01720161


Station Type Date Time Source
KISP Decoded METAR 2019/05/20 10:56 UTC NOAA

ISLIP LONG ISLAND MAC ART, NY, United States (KISP) 40-48N 073-06W 43M
May 20, 2019 - 06:56 AM EDT / 2019.05.20 1056 UTC
Wind: from the SSW (210 degrees) at 10 MPH (9 KT):0
Visibility: 8 mile(s):0
Sky conditions: mostly cloudy
Temperature: 63.0 F (17.2 C)
Dew Point: 61.0 F (16.1 C)
Relative Humidity: 93%
Pressure (altimeter): 29.86 in. Hg (1011 hPa)
ob: KISP 201056Z 21009KT 8SM SCT150 BKN250 17/16 A2986 RMK AO2 SLP109 T01720161
cycle: 11

Station Type Date Time Source
KISP TAF 2019/05/20 09:51 UTC NOAA

TAF
AMD KISP 200848Z 2009/2106 20009KT P6SM SCT080 BKN200 WS020/22045KT
FM201300 21010KT P6SM FEW040 SCT120 BKN200
FM201500 21013G19KT P6SM SCT040 BKN200
FM202000 23015G25KT P6SM SCT040 BKN150 PROB30 2020/2022 5SM -TSRA BKN040CB
FM210200 26010G20KT P6SM SCT150 BKN250

Example: see airport list